Terminal Aerodrome Forecast
Issued by NWS Charleston, WV

Home | Current Version | Previous Version | Text Only | Print | Product List | Glossary On
Versions: 1 2 3 4 5 6 7 8 9 10 11 12 13 14 15 16 17 18 19 20 21 22 23 24 25 26 27
000
FTUS41 KRLX 230900 AAA
TAFEKN
TAF AMD
KEKN 230932Z 2310/2406 00000KT 4SM BR BKN010
      TEMPO 2310/2313 2SM BR BKN005
     FM231300 00000KT 6SM BR BKN015
     FM231500 VRB03KT P6SM BKN025
     FM231900 03003KT P6SM VCTS BKN028CB
     FM232300 VRB03KT P6SM BKN030
     FM240400 12006KT 4SM BR BKN030=

USA.gov is the U.S. government's official web portal to all federal, state and local government web resources and services.